createdAt,value
2022-08-17T00:01:56.905Z,20.40
2022-08-17T00:04:50.611Z,20.33
2022-08-17T00:07:39.346Z,20.30
2022-08-17T00:10:28.205Z,20.11
2022-08-17T00:13:21.463Z,20.21
2022-08-17T00:16:17.320Z,20.19
2022-08-17T00:19:08.856Z,20.14
2022-08-17T00:22:31.815Z,20.19
2022-08-17T00:25:12.175Z,20.06
2022-08-17T00:28:00.785Z,19.92
2022-08-17T00:30:52.935Z,20.00
2022-08-17T00:33:45.284Z,19.98
2022-08-17T00:36:33.895Z,19.83
2022-08-17T00:39:22.431Z,19.74
2022-08-17T00:42:14.541Z,19.75
2022-08-17T00:45:04.412Z,19.64
2022-08-17T00:47:52.949Z,19.73
2022-08-17T00:50:46.540Z,19.63
2022-08-17T00:53:36.728Z,19.64
2022-08-17T00:56:30.341Z,19.58
2022-08-17T00:59:22.007Z,19.54
2022-08-17T01:02:11.499Z,19.50
2022-08-17T01:05:00.060Z,19.44
2022-08-17T01:07:51.135Z,19.51
2022-08-17T01:10:57.279Z,19.50
2022-08-17T01:13:50.248Z,19.34
2022-08-17T01:16:39.219Z,19.40
2022-08-17T01:19:30.708Z,19.34
2022-08-17T01:22:23.248Z,19.31
2022-08-17T01:25:12.863Z,19.34
2022-08-17T01:28:01.552Z,19.32
2022-08-17T01:30:58.541Z,19.29
2022-08-17T01:33:47.830Z,19.27
2022-08-17T01:36:36.654Z,19.12
2022-08-17T01:39:31.540Z,19.14
2022-08-17T01:42:24.526Z,18.89
2022-08-17T01:45:16.651Z,18.90
2022-08-17T01:48:05.740Z,18.92
2022-08-17T01:50:54.203Z,18.93
2022-08-17T01:53:46.109Z,18.97
2022-08-17T01:56:38.595Z,19.01
2022-08-17T01:59:27.348Z,19.10
2022-08-17T02:02:30.573Z,19.12
2022-08-17T02:05:20.539Z,18.90
2022-08-17T02:08:09.111Z,19.09
2022-08-17T02:11:11.789Z,19.11
2022-08-17T02:14:04.078Z,18.95
2022-08-17T02:16:53.205Z,19.11
2022-08-17T02:19:41.825Z,19.06
2022-08-17T02:22:30.998Z,19.02
2022-08-17T02:25:21.136Z,18.92
2022-08-17T02:28:09.793Z,18.92
2022-08-17T02:31:05.217Z,18.94
2022-08-17T02:34:03.331Z,18.80
2022-08-17T02:36:54.057Z,18.70
2022-08-17T02:39:42.643Z,18.82
2022-08-17T02:42:33.795Z,18.74
2022-08-17T02:45:24.354Z,18.80
2022-08-17T02:48:14.220Z,18.72
2022-08-17T02:51:19.264Z,18.68
2022-08-17T02:54:39.267Z,18.70
2022-08-17T02:57:16.227Z,18.60
2022-08-17T03:00:06.151Z,18.57
2022-08-17T03:02:57.781Z,18.63
2022-08-17T03:05:51.200Z,18.50
2022-08-17T03:08:40.534Z,18.42
2022-08-17T03:11:29.142Z,18.42
2022-08-17T03:14:17.727Z,18.26
2022-08-17T03:17:06.768Z,18.52
2022-08-17T03:19:55.264Z,18.49
2022-08-17T03:22:53.383Z,18.44
2022-08-17T03:25:44.068Z,18.41
2022-08-17T03:28:32.665Z,18.30
2022-08-17T03:31:25.786Z,18.36
2022-08-17T03:34:14.587Z,18.62
2022-08-17T03:37:03.110Z,18.93
2022-08-17T03:39:54.228Z,19.06
2022-08-17T03:42:43.785Z,19.44
2022-08-17T03:45:49.779Z,19.62
2022-08-17T03:48:57.873Z,19.90
2022-08-17T03:52:04.002Z,20.00
2022-08-17T03:55:11.599Z,19.99
2022-08-17T03:58:00.257Z,19.99
2022-08-17T04:00:49.109Z,20.06
2022-08-17T04:03:37.638Z,20.18
2022-08-17T04:06:26.202Z,20.19
2022-08-17T04:09:15.078Z,20.18
2022-08-17T04:12:05.923Z,20.27
2022-08-17T04:14:55.342Z,20.28
2022-08-17T04:17:44.751Z,20.29
2022-08-17T04:20:33.327Z,20.28
2022-08-17T04:23:21.877Z,20.29
2022-08-17T04:26:11.013Z,20.45
2022-08-17T04:29:21.437Z,20.24
2022-08-17T04:32:10.177Z,20.37
2022-08-17T04:34:59.007Z,20.14
2022-08-17T04:37:47.478Z,19.88
2022-08-17T04:40:53.900Z,19.90
2022-08-17T04:43:43.975Z,19.63
2022-08-17T04:46:35.630Z,19.45
2022-08-17T04:49:24.204Z,19.45
2022-08-17T04:52:29.523Z,19.49
2022-08-17T04:55:21.367Z,19.60
2022-08-17T04:58:10.325Z,19.62
2022-08-17T05:00:58.883Z,19.61
2022-08-17T05:03:49.040Z,19.65
2022-08-17T05:06:37.631Z,19.74
2022-08-17T05:09:26.100Z,19.81
2022-08-17T05:12:16.583Z,19.78
2022-08-17T05:15:05.951Z,19.93
2022-08-17T05:17:54.430Z,19.92
2022-08-17T05:20:47.726Z,19.89
2022-08-17T05:23:42.813Z,19.89
2022-08-17T05:26:31.910Z,19.96
2022-08-17T05:29:33.637Z,19.90
2022-08-17T05:32:39.247Z,20.04
2022-08-17T05:35:30.368Z,20.07
2022-08-17T05:38:22.084Z,20.13
2022-08-17T05:41:10.917Z,20.09
2022-08-17T05:43:59.432Z,20.06
2022-08-17T05:46:54.280Z,20.20
2022-08-17T05:49:42.789Z,20.16
2022-08-17T05:52:35.881Z,20.21
2022-08-17T05:55:31.770Z,20.19
2022-08-17T05:58:24.599Z,20.27
2022-08-17T06:01:18.972Z,20.33
2022-08-17T06:04:17.886Z,20.38
2022-08-17T06:07:11.490Z,20.60
2022-08-17T06:10:14.607Z,20.81
2022-08-17T06:13:11.293Z,21.12
2022-08-17T06:16:03.588Z,21.42
2022-08-17T06:18:57.347Z,21.19
2022-08-17T06:21:48.700Z,21.32
2022-08-17T06:24:39.852Z,21.34
2022-08-17T06:27:32.655Z,21.70
2022-08-17T06:30:25.774Z,21.81
2022-08-17T06:33:19.449Z,21.92
2022-08-17T06:36:22.336Z,22.00
2022-08-17T06:39:26.444Z,21.94
2022-08-17T06:42:54.686Z,22.20
2022-08-17T06:45:37.414Z,22.30
2022-08-17T06:48:29.388Z,22.32
2022-08-17T06:51:22.099Z,22.37
2022-08-17T06:54:16.552Z,22.36
2022-08-17T06:57:13.376Z,22.35
2022-08-17T07:00:05.965Z,22.33
2022-08-17T07:03:02.180Z,22.37
2022-08-17T07:05:53.371Z,22.56
2022-08-17T07:08:50.955Z,22.70
2022-08-17T07:11:41.985Z,22.77
2022-08-17T07:14:36.554Z,22.82
2022-08-17T07:17:46.636Z,22.83
2022-08-17T07:20:37.546Z,22.86
2022-08-17T07:23:33.897Z,22.90
2022-08-17T07:26:24.242Z,22.98
2022-08-17T07:29:17.835Z,23.08
2022-08-17T07:32:09.060Z,22.74
2022-08-17T07:35:11.345Z,23.39
2022-08-17T07:38:25.329Z,23.49
2022-08-17T07:41:14.600Z,23.47
2022-08-17T07:44:03.233Z,23.66
2022-08-17T07:47:11.186Z,23.97
2022-08-17T07:49:59.776Z,24.38
2022-08-17T07:52:52.257Z,24.66
2022-08-17T07:55:42.922Z,24.79
2022-08-17T07:58:31.504Z,24.62
2022-08-17T08:01:20.062Z,24.64
2022-08-17T08:04:59.272Z,24.65
2022-08-17T08:07:40.086Z,24.45
2022-08-17T08:10:33.479Z,24.27
2022-08-17T08:13:27.885Z,24.39
2022-08-17T08:16:25.281Z,24.48
2022-08-17T08:19:20.887Z,24.47
2022-08-17T08:22:11.449Z,24.51
2022-08-17T08:25:08.477Z,24.53
2022-08-17T08:28:16.977Z,24.59
2022-08-17T08:31:13.654Z,24.49
2022-08-17T08:34:53.494Z,24.47
2022-08-17T08:37:50.942Z,24.53
2022-08-17T08:41:02.774Z,24.38
2022-08-17T08:44:00.722Z,24.25
2022-08-17T08:46:57.689Z,24.39
2022-08-17T08:50:05.464Z,24.21
2022-08-17T08:53:14.254Z,24.11
2022-08-17T08:56:06.395Z,23.98
2022-08-17T08:59:00.125Z,24.06
2022-08-17T09:01:59.729Z,24.06
2022-08-17T09:05:13.931Z,24.36
2022-08-17T09:08:07.586Z,24.43
2022-08-17T09:11:01.175Z,24.60
2022-08-17T09:13:57.122Z,24.54
2022-08-17T09:16:53.546Z,24.22
2022-08-17T09:19:46.103Z,24.51
2022-08-17T09:22:37.440Z,24.55
2022-08-17T09:25:29.374Z,24.61
2022-08-17T09:28:20.293Z,24.73
2022-08-17T09:31:10.370Z,24.80
2022-08-17T09:34:01.621Z,25.01
2022-08-17T09:36:55.838Z,24.92
2022-08-17T09:39:47.942Z,24.79
2022-08-17T09:42:44.553Z,24.77
2022-08-17T09:45:36.394Z,24.82
2022-08-17T09:48:32.546Z,24.70
2022-08-17T09:51:25.096Z,24.73
2022-08-17T09:54:38.587Z,24.55
2022-08-17T09:57:38.761Z,24.56
2022-08-17T10:00:31.243Z,24.48
2022-08-17T10:03:41.270Z,24.25
2022-08-17T10:06:34.390Z,23.92
2022-08-17T10:09:30.989Z,23.80
2022-08-17T10:12:30.199Z,23.38
2022-08-17T10:15:25.237Z,23.45
2022-08-17T10:18:31.954Z,23.31
2022-08-17T10:21:40.563Z,23.26
2022-08-17T10:25:21.906Z,23.13
2022-08-17T10:28:02.083Z,23.08
2022-08-17T10:31:10.437Z,23.37
2022-08-17T10:34:20.623Z,23.79
2022-08-17T10:37:37.994Z,24.29
2022-08-17T10:40:38.474Z,24.62
2022-08-17T10:43:34.870Z,24.85
2022-08-17T10:46:31.007Z,25.00
2022-08-17T10:49:27.298Z,25.09
2022-08-17T10:52:48.600Z,25.01
2022-08-17T10:55:41.484Z,24.93
2022-08-17T10:58:38.765Z,24.92
2022-08-17T11:02:06.118Z,24.87
2022-08-17T11:05:16.861Z,23.93
2022-08-17T11:08:38.337Z,24.79
2022-08-17T11:11:54.457Z,24.84
2022-08-17T11:15:00.331Z,24.90
2022-08-17T11:18:18.325Z,24.88
2022-08-17T11:21:30.756Z,24.94
2022-08-17T11:24:23.093Z,24.98
2022-08-17T11:27:25.273Z,25.14
2022-08-17T11:30:15.709Z,25.29
2022-08-17T11:33:56.197Z,25.30
2022-08-17T11:37:20.787Z,25.38
2022-08-17T11:40:35.980Z,25.32
2022-08-17T11:43:55.363Z,25.30
2022-08-17T11:47:17.465Z,25.36
2022-08-17T11:51:01.325Z,25.61
2022-08-17T11:58:01.511Z,26.07
2022-08-17T12:00:56.351Z,25.94
2022-08-17T12:03:53.980Z,25.97
2022-08-17T12:06:47.955Z,25.95
2022-08-17T12:09:39.764Z,25.86
2022-08-17T12:12:33.379Z,25.77
2022-08-17T12:15:28.764Z,25.78
2022-08-17T12:18:21.888Z,25.16
2022-08-17T12:21:20.965Z,25.72
2022-08-17T12:24:19.787Z,25.84
2022-08-17T12:27:10.933Z,25.96
2022-08-17T12:30:05.600Z,26.20
2022-08-17T12:32:54.532Z,26.31
2022-08-17T12:35:43.389Z,26.40
2022-08-17T12:38:35.934Z,26.66
2022-08-17T12:41:36.783Z,27.05
2022-08-17T12:44:26.966Z,27.23
2022-08-17T12:47:22.281Z,27.21
2022-08-17T12:50:28.600Z,27.20
2022-08-17T12:53:21.818Z,27.36
2022-08-17T12:56:13.346Z,27.62
2022-08-17T12:59:02.445Z,27.90
2022-08-17T13:01:51.875Z,28.25
2022-08-17T13:04:40.867Z,28.27
2022-08-17T13:07:41.977Z,29.01
2022-08-17T13:10:33.443Z,29.04
2022-08-17T13:13:24.907Z,29.23
2022-08-17T13:16:18.534Z,29.02
2022-08-17T13:19:09.113Z,29.02
2022-08-17T13:22:00.886Z,29.23
2022-08-17T13:24:54.814Z,29.47
2022-08-17T13:27:44.157Z,29.51
2022-08-17T13:30:34.201Z,29.75
2022-08-17T13:33:44.735Z,29.86
2022-08-17T13:36:33.941Z,29.92
2022-08-17T13:39:24.339Z,30.09
2022-08-17T13:42:31.380Z,30.18
2022-08-17T13:45:51.374Z,29.72
2022-08-17T13:48:40.121Z,29.86
2022-08-17T13:51:31.908Z,29.64
2022-08-17T13:54:25.931Z,29.87
2022-08-17T13:57:21.870Z,30.06
2022-08-17T14:00:17.420Z,29.34
2022-08-17T14:03:07.420Z,30.20
2022-08-17T14:05:55.969Z,30.14
2022-08-17T14:14:23.595Z,29.89
2022-08-17T14:17:12.636Z,29.79
2022-08-17T14:20:02.671Z,30.03
2022-08-17T14:22:53.163Z,29.99
2022-08-17T14:25:41.741Z,30.12
2022-08-17T14:28:30.272Z,30.39
2022-08-17T14:31:20.594Z,30.48
2022-08-17T14:34:10.705Z,30.56
2022-08-17T14:37:00.642Z,30.63
2022-08-17T14:39:49.490Z,30.81
2022-08-17T14:42:39.870Z,30.79
2022-08-17T14:45:32.994Z,30.67
2022-08-17T14:48:22.001Z,30.78
2022-08-17T14:51:10.533Z,30.44
2022-08-17T14:54:00.456Z,30.24
2022-08-17T14:56:48.996Z,30.31
2022-08-17T14:59:57.451Z,30.41
2022-08-17T15:02:48.559Z,30.40
2022-08-17T15:05:38.909Z,30.40
2022-08-17T15:08:28.248Z,30.44
2022-08-17T15:11:18.741Z,30.45
2022-08-17T15:14:07.536Z,30.42
2022-08-17T15:16:56.232Z,30.41
2022-08-17T15:19:45.357Z,30.32
2022-08-17T15:22:33.958Z,30.33
2022-08-17T15:25:23.092Z,30.33
2022-08-17T15:28:13.324Z,30.30
2022-08-17T15:31:01.911Z,30.24
2022-08-17T15:33:50.486Z,30.22
2022-08-17T15:36:40.677Z,30.17
2022-08-17T15:39:37.813Z,30.21
2022-08-17T15:42:26.697Z,30.16
2022-08-17T15:45:17.564Z,30.11
2022-08-17T15:48:06.724Z,30.06
2022-08-17T15:50:55.265Z,30.11
2022-08-17T15:53:45.965Z,30.11
2022-08-17T15:56:34.548Z,30.04
2022-08-17T15:59:23.055Z,30.03
2022-08-17T16:03:15.957Z,30.04
2022-08-17T16:05:27.118Z,29.85
2022-08-17T16:08:20.642Z,29.71
2022-08-17T16:11:10.605Z,29.75
2022-08-17T16:13:59.132Z,29.86
2022-08-17T16:16:47.693Z,29.70
2022-08-17T16:19:38.427Z,29.60
2022-08-17T16:22:32.271Z,29.62
2022-08-17T16:25:23.274Z,29.43
2022-08-17T16:28:36.413Z,29.56
2022-08-17T16:31:25.811Z,29.42
2022-08-17T16:34:17.266Z,29.33
2022-08-17T16:37:09.262Z,29.50
2022-08-17T16:40:00.263Z,29.48
2022-08-17T16:42:50.150Z,29.39
2022-08-17T16:45:40.700Z,29.26
2022-08-17T16:48:30.225Z,29.19
2022-08-17T16:51:21.437Z,29.11
2022-08-17T16:54:15.876Z,29.10
2022-08-17T16:57:06.350Z,29.00
2022-08-17T16:59:55.140Z,28.92
2022-08-17T17:02:46.614Z,28.83
2022-08-17T17:05:51.397Z,28.77
2022-08-17T17:08:49.550Z,28.69
2022-08-17T17:11:44.701Z,28.64
2022-08-17T17:14:37.210Z,28.60
2022-08-17T17:17:30.252Z,28.31
2022-08-17T17:20:21.738Z,28.50
2022-08-17T17:23:15.804Z,28.44
2022-08-17T17:26:13.081Z,28.38
2022-08-17T17:29:14.835Z,28.30
2022-08-17T17:32:09.406Z,28.22
2022-08-17T17:35:02.223Z,28.12
2022-08-17T17:37:51.525Z,28.01
2022-08-17T17:40:42.039Z,27.90
2022-08-17T17:43:40.328Z,27.80
2022-08-17T17:46:33.304Z,27.75
2022-08-17T17:49:21.894Z,27.69
2022-08-17T17:52:19.004Z,27.65
2022-08-17T17:55:16.022Z,27.58
2022-08-17T17:58:13.843Z,27.54
2022-08-17T18:01:20.068Z,27.45
2022-08-17T18:04:20.479Z,27.38
2022-08-17T18:07:17.973Z,27.24
2022-08-17T18:10:19.634Z,27.18
2022-08-17T18:13:26.669Z,27.12
2022-08-17T18:16:15.832Z,27.08
2022-08-17T18:19:06.118Z,26.99
2022-08-17T18:22:05.090Z,26.95
2022-08-17T18:24:57.284Z,26.67
2022-08-17T18:27:52.088Z,26.81
2022-08-17T18:30:40.743Z,26.67
2022-08-17T18:33:29.299Z,26.54
2022-08-17T18:36:28.887Z,26.46
2022-08-17T18:39:20.967Z,26.35
2022-08-17T18:42:25.804Z,26.28
2022-08-17T18:45:16.769Z,26.14
2022-08-17T18:48:06.921Z,26.14
2022-08-17T18:50:58.401Z,26.08
2022-08-17T18:53:46.980Z,26.06
2022-08-17T18:56:37.593Z,25.96
2022-08-17T18:59:29.533Z,25.74
2022-08-17T19:02:38.780Z,25.70
2022-08-17T19:05:35.614Z,25.61
2022-08-17T19:08:34.669Z,25.23
2022-08-17T19:11:28.416Z,25.26
2022-08-17T19:14:20.223Z,25.29
2022-08-17T19:17:12.966Z,25.18
2022-08-17T19:20:07.328Z,24.95
2022-08-17T19:23:15.289Z,25.05
2022-08-17T19:26:07.518Z,24.98
2022-08-17T19:29:22.401Z,24.69
2022-08-17T19:32:12.521Z,24.88
2022-08-17T19:35:02.086Z,24.67
2022-08-17T19:38:03.299Z,24.71
2022-08-17T19:41:02.076Z,24.65
2022-08-17T19:43:59.059Z,24.58
2022-08-17T19:46:56.280Z,24.47
2022-08-17T19:50:02.602Z,24.37
2022-08-17T19:52:55.169Z,24.32
2022-08-17T19:55:51.354Z,24.27
2022-08-17T19:58:54.854Z,24.29
2022-08-17T20:01:47.612Z,24.13
2022-08-17T20:04:42.349Z,24.11
2022-08-17T20:07:44.810Z,24.06
2022-08-17T20:10:40.433Z,24.01
2022-08-17T20:13:33.606Z,23.91
2022-08-17T20:16:22.687Z,23.69
2022-08-17T20:19:17.929Z,23.60
2022-08-17T20:22:11.729Z,23.60
2022-08-17T20:25:06.532Z,23.36
2022-08-17T20:28:02.906Z,23.49
2022-08-17T20:30:55.596Z,23.20
2022-08-17T20:33:45.390Z,23.45
2022-08-17T20:36:36.809Z,23.41
2022-08-17T20:39:35.980Z,23.40
2022-08-17T20:42:33.540Z,23.36
2022-08-17T20:45:49.979Z,23.29
2022-08-17T20:48:41.203Z,23.14
2022-08-17T20:51:33.220Z,22.88
2022-08-17T20:54:48.133Z,22.96
2022-08-17T20:57:48.780Z,22.96
2022-08-17T21:00:45.926Z,22.98
2022-08-17T21:04:01.386Z,22.99
2022-08-17T21:07:23.254Z,22.98
2022-08-17T21:10:16.474Z,23.02
2022-08-17T21:13:41.555Z,23.08
2022-08-17T21:16:41.285Z,23.05
2022-08-17T21:20:00.572Z,22.98
2022-08-17T21:23:02.813Z,22.93
2022-08-17T21:26:09.329Z,22.94
2022-08-17T21:29:29.918Z,22.90
2022-08-17T21:32:23.745Z,22.85
2022-08-17T21:35:27.224Z,22.83
2022-08-17T21:38:19.321Z,22.92
2022-08-17T21:41:21.264Z,22.91
2022-08-17T21:44:14.690Z,22.97
2022-08-17T21:47:16.568Z,23.18
2022-08-17T21:50:16.090Z,23.06
2022-08-17T21:53:05.612Z,23.74
2022-08-17T21:55:54.567Z,23.82
2022-08-17T21:58:48.426Z,24.03
2022-08-17T22:01:38.774Z,24.07
2022-08-17T22:04:29.992Z,24.11
2022-08-17T22:07:35.387Z,24.11
2022-08-17T22:10:33.270Z,24.14
2022-08-17T22:13:24.057Z,24.17
2022-08-17T22:16:28.618Z,24.18
2022-08-17T22:19:19.029Z,24.13
2022-08-17T22:22:10.385Z,24.10
2022-08-17T22:25:01.342Z,24.13
2022-08-17T22:27:54.399Z,24.19
2022-08-17T22:30:43.955Z,24.18
2022-08-17T22:33:40.675Z,24.12
2022-08-17T22:36:30.822Z,24.12
2022-08-17T22:39:41.394Z,24.05
2022-08-17T22:42:30.063Z,24.08
2022-08-17T22:45:18.587Z,23.95
2022-08-17T22:48:07.281Z,23.92
2022-08-17T22:51:13.285Z,23.61
2022-08-17T22:54:22.032Z,23.91
2022-08-17T22:57:31.775Z,23.86
2022-08-17T23:00:34.597Z,23.75
2022-08-17T23:03:25.225Z,23.75
2022-08-17T23:06:15.116Z,23.74
2022-08-17T23:09:06.026Z,23.66
2022-08-17T23:11:57.383Z,23.72
2022-08-17T23:14:48.007Z,23.64
